Time;durP1;ratioP1;P1;durP2;ratioP2;P2;SDS_P1;SDS_P2;PMS_P1;PMS_P2;Temp;Humidity;BMP_temperature;BMP_pressure;BME280_temperature;BME280_humidity;BME280_pressure;Samples;Min_cycle;Max_cycle;Signal;HPM_P1;HPM_P2
2022/04/29 00:00:17;;;;;;;3.33;2.20;;;;;;;;;;5049411;28;20439;-69
2022/04/29 00:02:43;;;;;;;3.72;2.40;;;;;;;;;;5049353;28;20028;-69
2022/04/29 00:05:10;;;;;;;4.85;2.33;;;;;;;;;;5049828;28;20087;-68
2022/04/29 00:07:37;;;;;;;10.23;2.78;;;;;;;;;;5049346;28;20037;-69
2022/04/29 00:10:02;;;;;;;4.07;2.35;;;;;;;;;;5049580;28;20041;-69
2022/04/29 00:12:28;;;;;;;5.10;2.40;;;;;;;;;;5049460;28;20029;-69
2022/04/29 00:14:55;;;;;;;4.25;2.30;;;;;;;;;;5049225;28;20029;-69
2022/04/29 00:17:20;;;;;;;6.63;2.55;;;;;;;;;;5048978;28;20033;-69
2022/04/29 00:19:46;;;;;;;4.20;2.60;;;;;;;;;;5049389;28;20143;-69
2022/04/29 00:22:11;;;;;;;7.05;2.70;;;;;;;;;;5049393;28;20054;-69
2022/04/29 00:24:37;;;;;;;4.53;2.58;;;;;;;;;;5049518;28;20101;-69
2022/04/29 00:27:03;;;;;;;5.00;2.50;;;;;;;;;;5049484;28;20029;-70
2022/04/29 00:29:28;;;;;;;4.85;2.50;;;;;;;;;;5049289;28;20021;-69
2022/04/29 00:31:54;;;;;;;4.53;2.20;;;;;;;;;;5049169;28;20074;-69
2022/04/29 00:34:19;;;;;;;4.70;2.30;;;;;;;;;;5048921;28;20064;-69
2022/04/29 00:36:45;;;;;;;4.45;2.40;;;;;;;;;;5049134;28;20221;-69
2022/04/29 00:39:10;;;;;;;4.15;2.50;;;;;;;;;;5049285;28;20033;-70
2022/04/29 00:41:36;;;;;;;3.92;2.38;;;;;;;;;;5049111;28;20064;-68
2022/04/29 00:44:04;;;;;;;5.03;2.78;;;;;;;;;;5050862;28;20405;-68
2022/04/29 00:46:35;;;;;;;4.03;2.55;;;;;;;;;;5053117;28;20439;-69
2022/04/29 00:49:01;;;;;;;6.22;2.70;;;;;;;;;;5052410;28;20099;-69
2022/04/29 00:51:27;;;;;;;4.97;2.60;;;;;;;;;;5052615;28;20036;-68
2022/04/29 00:53:55;;;;;;;5.88;2.40;;;;;;;;;;5052297;28;20017;-69
2022/04/29 00:56:22;;;;;;;5.80;2.80;;;;;;;;;;5052520;28;20044;-69
2022/04/29 00:59:16;;;;;;;4.40;2.53;;;;;;;;;;5052023;28;20459;-69
2022/04/29 01:01:46;;;;;;;4.78;2.70;;;;;;;;;;5048606;28;20037;-69
2022/04/29 01:04:21;;;;;;;5.68;2.40;;;;;;;;;;5052223;28;20104;-69
2022/04/29 01:06:47;;;;;;;4.35;2.40;;;;;;;;;;5052394;28;20209;-69
2022/04/29 01:09:12;;;;;;;5.57;2.72;;;;;;;;;;5051878;28;20188;-68
2022/04/29 01:11:39;;;;;;;5.75;2.90;;;;;;;;;;5052494;28;20436;-69
2022/04/29 01:14:04;;;;;;;7.15;2.90;;;;;;;;;;5052179;28;20112;-69
2022/04/29 01:16:30;;;;;;;4.63;2.90;;;;;;;;;;5052087;28;20112;-69
2022/04/29 01:18:55;;;;;;;4.60;2.65;;;;;;;;;;5051816;28;20380;-69
2022/04/29 01:21:20;;;;;;;5.53;2.70;;;;;;;;;;5052288;28;20021;-68
2022/04/29 01:23:46;;;;;;;3.78;2.58;;;;;;;;;;5051730;28;20106;-69
2022/04/29 01:26:15;;;;;;;5.90;2.38;;;;;;;;;;5052228;28;20032;-68
2022/04/29 01:28:45;;;;;;;4.15;2.55;;;;;;;;;;5051711;28;20100;-68
2022/04/29 01:31:14;;;;;;;5.65;2.60;;;;;;;;;;5034010;28;20319;-68
2022/04/29 01:33:45;;;;;;;4.10;2.38;;;;;;;;;;5051547;28;20283;-69
2022/04/29 01:36:11;;;;;;;3.40;2.28;;;;;;;;;;5051824;28;20037;-69
2022/04/29 01:38:37;;;;;;;4.63;2.30;;;;;;;;;;5051456;28;20028;-69
2022/04/29 01:41:05;;;;;;;4.13;2.22;;;;;;;;;;5051577;28;20508;-69
2022/04/29 01:43:31;;;;;;;3.70;2.20;;;;;;;;;;5051457;28;20047;-69
2022/04/29 01:45:57;;;;;;;5.93;2.45;;;;;;;;;;5051416;28;20021;-69
2022/04/29 01:48:24;;;;;;;3.83;2.05;;;;;;;;;;5051219;28;20059;-68
2022/04/29 01:50:49;;;;;;;4.93;2.30;;;;;;;;;;5051572;28;20031;-68
2022/04/29 01:53:15;;;;;;;4.15;2.30;;;;;;;;;;5051544;28;20108;-68
2022/04/29 01:55:40;;;;;;;3.35;1.95;;;;;;;;;;5050681;28;20049;-69
2022/04/29 01:58:06;;;;;;;3.92;2.17;;;;;;;;;;5051007;28;20033;-68
2022/04/29 02:00:31;;;;;;;4.15;2.20;;;;;;;;;;5051118;28;20029;-68
2022/04/29 02:02:57;;;;;;;4.55;2.15;;;;;;;;;;5051216;28;20029;-69
2022/04/29 02:05:22;;;;;;;4.32;2.10;;;;;;;;;;5051153;28;20369;-69
2022/04/29 02:07:48;;;;;;;3.53;1.90;;;;;;;;;;5051210;28;20033;-69
2022/04/29 02:10:13;;;;;;;3.67;1.98;;;;;;;;;;5051308;28;20032;-69
2022/04/29 02:12:39;;;;;;;3.65;2.00;;;;;;;;;;5051219;28;20112;-69
2022/04/29 02:15:07;;;;;;;4.57;1.80;;;;;;;;;;5050703;28;20031;-69
2022/04/29 02:17:33;;;;;;;2.85;1.52;;;;;;;;;;5050782;28;20398;-68
2022/04/29 02:19:58;;;;;;;3.05;1.73;;;;;;;;;;5050704;28;20040;-69
2022/04/29 02:22:24;;;;;;;3.72;1.77;;;;;;;;;;5050867;28;20087;-69
2022/04/29 02:24:49;;;;;;;7.03;2.05;;;;;;;;;;5050676;28;20028;-69
2022/04/29 02:27:14;;;;;;;4.07;1.67;;;;;;;;;;5051433;28;20112;-69
2022/04/29 02:29:40;;;;;;;4.10;1.85;;;;;;;;;;5050507;28;20025;-69
2022/04/29 02:32:06;;;;;;;3.97;1.92;;;;;;;;;;5050870;28;20071;-68
2022/04/29 02:34:31;;;;;;;2.85;1.70;;;;;;;;;;5050409;28;20473;-69
2022/04/29 02:36:57;;;;;;;4.97;1.95;;;;;;;;;;5050590;28;20175;-69
2022/04/29 02:39:22;;;;;;;4.82;1.75;;;;;;;;;;5050224;28;20029;-69
2022/04/29 02:41:48;;;;;;;4.85;1.67;;;;;;;;;;5050599;28;20052;-69
2022/04/29 02:44:14;;;;;;;4.82;1.90;;;;;;;;;;5050383;28;20033;-69
2022/04/29 02:49:24;;;;;;;2.92;1.67;;;;;;;;;;5050137;28;20036;-69
2022/04/29 02:51:49;;;;;;;3.72;2.03;;;;;;;;;;5050482;28;20021;-69
2022/04/29 02:54:15;;;;;;;3.42;1.80;;;;;;;;;;5050282;28;20044;-69
2022/04/29 02:56:41;;;;;;;3.50;1.80;;;;;;;;;;5050359;28;20105;-68
2022/04/29 02:59:06;;;;;;;4.55;2.00;;;;;;;;;;5050015;28;20488;-68
2022/04/29 03:01:33;;;;;;;3.13;1.88;;;;;;;;;;5050504;28;20047;-69
2022/04/29 03:03:59;;;;;;;5.43;2.00;;;;;;;;;;5050346;28;20029;-69
2022/04/29 03:06:24;;;;;;;3.88;2.00;;;;;;;;;;5050153;28;20051;-69
2022/04/29 03:08:50;;;;;;;3.47;1.90;;;;;;;;;;5049908;28;20104;-68
2022/04/29 03:11:15;;;;;;;3.38;1.88;;;;;;;;;;5049967;28;20032;-68
2022/04/29 03:13:41;;;;;;;3.78;1.80;;;;;;;;;;5050164;28;20091;-68
2022/04/29 03:16:06;;;;;;;5.97;2.00;;;;;;;;;;5049660;28;20047;-69
2022/04/29 03:18:32;;;;;;;5.10;1.98;;;;;;;;;;5049878;28;20133;-68
2022/04/29 03:20:57;;;;;;;4.45;2.05;;;;;;;;;;5049838;28;20468;-69
2022/04/29 03:23:23;;;;;;;5.22;1.92;;;;;;;;;;5050091;28;20036;-69
2022/04/29 03:25:49;;;;;;;5.80;1.92;;;;;;;;;;5049698;28;20033;-69
2022/04/29 03:28:15;;;;;;;4.63;2.10;;;;;;;;;;5049852;28;20442;-69
2022/04/29 03:30:41;;;;;;;7.85;2.35;;;;;;;;;;5049372;28;20025;-69
2022/04/29 03:33:08;;;;;;;4.78;2.05;;;;;;;;;;5049836;28;20508;-69
2022/04/29 03:35:44;;;;;;;7.28;2.17;;;;;;;;;;5049778;28;20480;-69
2022/04/29 03:38:09;;;;;;;5.18;1.90;;;;;;;;;;5049726;28;20412;-68
2022/04/29 03:40:35;;;;;;;3.33;1.90;;;;;;;;;;5049644;28;20477;-69
2022/04/29 03:43:01;;;;;;;4.00;2.13;;;;;;;;;;5049766;28;20056;-68
2022/04/29 03:45:28;;;;;;;3.85;1.75;;;;;;;;;;5049086;28;20037;-68
2022/04/29 03:47:54;;;;;;;3.28;1.70;;;;;;;;;;5049533;28;20029;-69
2022/04/29 03:50:23;;;;;;;4.05;2.03;;;;;;;;;;5049569;28;20125;-69
2022/04/29 03:52:57;;;;;;;4.75;1.90;;;;;;;;;;5049880;28;20035;-69
2022/04/29 03:55:26;;;;;;;3.97;2.10;;;;;;;;;;5049545;28;20496;-69
2022/04/29 03:57:53;;;;;;;4.13;2.10;;;;;;;;;;5049526;28;20032;-69
2022/04/29 04:00:20;;;;;;;3.35;1.90;;;;;;;;;;5031256;28;20110;-69
2022/04/29 04:02:45;;;;;;;3.90;1.90;;;;;;;;;;5049681;28;20025;-69
2022/04/29 04:05:11;;;;;;;3.22;1.95;;;;;;;;;;5049343;28;20021;-69
2022/04/29 04:07:37;;;;;;;5.32;2.10;;;;;;;;;;5049740;28;20560;-69
2022/04/29 04:10:06;;;;;;;4.68;2.30;;;;;;;;;;5049171;28;20068;-69
2022/04/29 04:12:38;;;;;;;4.78;2.13;;;;;;;;;;5049574;28;20115;-69
2022/04/29 04:15:05;;;;;;;9.13;2.30;;;;;;;;;;5049306;28;20047;-68
2022/04/29 04:17:31;;;;;;;5.68;2.30;;;;;;;;;;5049450;28;20028;-69
2022/04/29 04:19:56;;;;;;;8.55;2.00;;;;;;;;;;5052372;28;20029;-69
2022/04/29 04:22:22;;;;;;;5.70;2.00;;;;;;;;;;5053232;28;20028;-69
2022/04/29 04:24:47;;;;;;;5.05;1.80;;;;;;;;;;5052900;28;20027;-69
2022/04/29 04:27:13;;;;;;;5.32;1.80;;;;;;;;;;5053293;28;20033;-69
2022/04/29 04:29:38;;;;;;;6.78;1.98;;;;;;;;;;5052779;28;20117;-68
2022/04/29 04:32:04;;;;;;;7.18;1.98;;;;;;;;;;5053084;28;20017;-68
2022/04/29 04:37:13;;;;;;;5.38;1.75;;;;;;;;;;5052738;28;20507;-69
2022/04/29 04:39:39;;;;;;;3.35;1.60;;;;;;;;;;5052972;28;20024;-69
2022/04/29 04:42:08;;;;;;;5.10;1.65;;;;;;;;;;5052722;28;20056;-69
2022/04/29 04:44:33;;;;;;;4.10;2.10;;;;;;;;;;5052687;28;20087;-69
2022/04/29 04:46:59;;;;;;;4.95;1.92;;;;;;;;;;5052615;28;20038;-69
2022/04/29 04:49:24;;;;;;;9.35;2.72;;;;;;;;;;5052682;28;20039;-68
2022/04/29 04:51:50;;;;;;;10.60;2.00;;;;;;;;;;5052334;28;20025;-69
2022/04/29 04:54:15;;;;;;;4.63;1.90;;;;;;;;;;5052903;28;20025;-69
2022/04/29 04:56:40;;;;;;;5.70;1.80;;;;;;;;;;5052319;28;20484;-69
2022/04/29 04:59:06;;;;;;;4.88;2.00;;;;;;;;;;5052552;28;20025;-70
2022/04/29 05:01:31;;;;;;;6.20;2.20;;;;;;;;;;5052427;28;20021;-69
2022/04/29 05:03:57;;;;;;;4.53;1.98;;;;;;;;;;5052891;28;20028;-69
2022/04/29 05:06:22;;;;;;;4.25;2.17;;;;;;;;;;5052360;28;20051;-70
2022/04/29 05:08:47;;;;;;;4.90;2.00;;;;;;;;;;5052243;28;20100;-73
2022/04/29 05:11:13;;;;;;;7.97;2.20;;;;;;;;;;5051889;28;20032;-69
2022/04/29 05:13:38;;;;;;;5.10;2.28;;;;;;;;;;5052440;28;20021;-72
2022/04/29 05:16:04;;;;;;;6.05;2.08;;;;;;;;;;5052000;28;20029;-71
2022/04/29 05:18:30;;;;;;;6.50;1.77;;;;;;;;;;5052213;28;20021;-71
2022/04/29 05:20:55;;;;;;;4.93;1.98;;;;;;;;;;5051893;28;20068;-71
2022/04/29 05:23:21;;;;;;;4.13;2.03;;;;;;;;;;5052163;28;20020;-71
2022/04/29 05:25:47;;;;;;;5.05;1.83;;;;;;;;;;5051829;28;20082;-69
2022/04/29 05:28:12;;;;;;;4.65;1.83;;;;;;;;;;5051794;28;20507;-74
2022/04/29 05:30:38;;;;;;;7.35;2.30;;;;;;;;;;5050941;28;20017;-71
2022/04/29 05:33:06;;;;;;;8.27;1.98;;;;;;;;;;5052387;28;20195;-71
2022/04/29 05:35:33;;;;;;;5.47;1.98;;;;;;;;;;5051584;28;20036;-70
2022/04/29 05:38:00;;;;;;;4.72;2.15;;;;;;;;;;5051851;28;20020;-71
2022/04/29 05:43:09;;;;;;;5.18;1.92;;;;;;;;;;5053978;28;20080;-71
2022/04/29 05:45:35;;;;;;;8.60;2.00;;;;;;;;;;5059267;28;20101;-71
2022/04/29 05:48:00;;;;;;;6.82;2.08;;;;;;;;;;5054689;28;20035;-71
2022/04/29 05:50:26;;;;;;;11.68;2.30;;;;;;;;;;5056805;28;20037;-70
2022/04/29 05:52:51;;;;;;;4.75;1.80;;;;;;;;;;5056589;28;20017;-70
2022/04/29 05:55:16;;;;;;;4.78;2.00;;;;;;;;;;5061906;28;20043;-70
2022/04/29 05:57:42;;;;;;;3.75;1.70;;;;;;;;;;5062894;28;20088;-71
2022/04/29 06:00:08;;;;;;;5.93;1.80;;;;;;;;;;5061920;28;20104;-72
2022/04/29 06:02:35;;;;;;;7.40;1.80;;;;;;;;;;5062703;28;20033;-71
2022/04/29 06:05:01;;;;;;;3.03;1.60;;;;;;;;;;5060339;28;20037;-71
2022/04/29 06:07:27;;;;;;;7.80;2.00;;;;;;;;;;5061766;28;20340;-71
2022/04/29 06:09:52;;;;;;;7.22;1.92;;;;;;;;;;5061450;28;20036;-71
2022/04/29 06:12:17;;;;;;;6.68;1.80;;;;;;;;;;5055752;28;20025;-70
2022/04/29 06:14:45;;;;;;;8.27;2.13;;;;;;;;;;5062701;28;20029;-70
2022/04/29 06:17:11;;;;;;;4.45;1.83;;;;;;;;;;5061636;28;20028;-70
2022/04/29 06:19:37;;;;;;;4.28;1.70;;;;;;;;;;5062357;28;20029;-70
2022/04/29 06:22:04;;;;;;;6.95;2.15;;;;;;;;;;5062283;28;20116;-71
2022/04/29 06:24:30;;;;;;;6.53;1.70;;;;;;;;;;5062430;28;20044;-70
2022/04/29 06:26:55;;;;;;;7.82;2.05;;;;;;;;;;5060638;28;20040;-71
2022/04/29 06:29:21;;;;;;;7.00;1.85;;;;;;;;;;5061631;28;20329;-71
2022/04/29 06:31:46;;;;;;;6.50;1.90;;;;;;;;;;5056712;28;20102;-71
2022/04/29 06:34:12;;;;;;;4.22;1.70;;;;;;;;;;5061654;28;20024;-71
2022/04/29 06:36:37;;;;;;;5.70;1.80;;;;;;;;;;5060711;28;20487;-70
2022/04/29 06:39:03;;;;;;;6.57;1.83;;;;;;;;;;5061081;28;20317;-70
2022/04/29 06:41:28;;;;;;;7.15;2.00;;;;;;;;;;5052236;28;20181;-71
2022/04/29 06:43:53;;;;;;;3.25;1.75;;;;;;;;;;5048605;28;20024;-72
2022/04/29 06:46:19;;;;;;;4.72;1.73;;;;;;;;;;5049680;28;20059;-71
2022/04/29 06:48:45;;;;;;;4.80;1.90;;;;;;;;;;5050440;28;20048;-72
2022/04/29 06:51:11;;;;;;;6.38;1.88;;;;;;;;;;5050023;28;20120;-73
2022/04/29 06:53:40;;;;;;;3.38;1.70;;;;;;;;;;5049996;28;20392;-71
2022/04/29 06:56:05;;;;;;;7.20;2.10;;;;;;;;;;5050049;28;20071;-70
2022/04/29 06:58:31;;;;;;;5.53;2.20;;;;;;;;;;5049533;28;20024;-70
2022/04/29 07:00:56;;;;;;;6.93;1.98;;;;;;;;;;5050341;28;20207;-69
2022/04/29 07:03:22;;;;;;;3.47;2.13;;;;;;;;;;5059383;28;20017;-71
2022/04/29 07:05:49;;;;;;;5.38;1.75;;;;;;;;;;5049613;28;20024;-71
2022/04/29 07:08:15;;;;;;;5.45;2.00;;;;;;;;;;5050055;28;20222;-72
2022/04/29 07:10:41;;;;;;;3.55;1.90;;;;;;;;;;5049989;28;20553;-71
2022/04/29 07:13:06;;;;;;;4.93;1.83;;;;;;;;;;5049912;28;20053;-70
2022/04/29 07:15:32;;;;;;;4.80;1.90;;;;;;;;;;5050229;28;20480;-70
2022/04/29 07:17:57;;;;;;;3.88;1.80;;;;;;;;;;5051164;28;20063;-71
2022/04/29 07:20:23;;;;;;;6.20;2.20;;;;;;;;;;5050126;28;20029;-71
2022/04/29 07:22:49;;;;;;;4.80;1.80;;;;;;;;;;5049775;28;20496;-70
2022/04/29 07:25:15;;;;;;;5.63;1.90;;;;;;;;;;5049935;28;20021;-70
2022/04/29 07:27:41;;;;;;;7.78;2.38;;;;;;;;;;5049646;28;20021;-71
2022/04/29 07:30:08;;;;;;;4.82;2.10;;;;;;;;;;5049336;28;20151;-70
2022/04/29 07:32:33;;;;;;;6.15;2.20;;;;;;;;;;5049619;28;20044;-70
2022/04/29 07:43:12;;;;;;;5.75;1.70;;;;;;;;;;5049495;28;20568;-70
2022/04/29 07:45:39;;;;;;;6.47;2.00;;;;;;;;;;5049856;28;20104;-70
2022/04/29 07:48:06;;;;;;;5.35;3.30;;;;;;;;;;5049597;28;20169;-71
2022/04/29 07:50:33;;;;;;;8.00;2.22;;;;;;;;;;5049816;28;20473;-71
2022/04/29 07:53:00;;;;;;;5.07;1.90;;;;;;;;;;5049964;28;20362;-71
2022/04/29 07:55:26;;;;;;;3.42;1.75;;;;;;;;;;5053828;28;20032;-70
2022/04/29 07:57:51;;;;;;;5.35;2.08;;;;;;;;;;5053488;28;20032;-71
2022/04/29 08:00:17;;;;;;;4.38;1.98;;;;;;;;;;5053457;28;20029;-70
2022/04/29 08:02:43;;;;;;;3.38;2.08;;;;;;;;;;5053119;28;20030;-70
2022/04/29 08:05:08;;;;;;;4.25;2.15;;;;;;;;;;5053419;28;20025;-70
2022/04/29 08:07:34;;;;;;;6.70;2.35;;;;;;;;;;5053295;28;20087;-70
2022/04/29 08:09:59;;;;;;;7.18;2.42;;;;;;;;;;5053500;28;20424;-72
2022/04/29 08:12:28;;;;;;;2.72;1.80;;;;;;;;;;5053197;28;20100;-71
2022/04/29 08:14:54;;;;;;;5.00;1.98;;;;;;;;;;5053305;28;20102;-69
2022/04/29 08:17:20;;;;;;;6.05;2.33;;;;;;;;;;5053124;28;20033;-70
2022/04/29 08:19:48;;;;;;;4.85;1.90;;;;;;;;;;5053395;28;20432;-70
2022/04/29 08:22:14;;;;;;;8.88;2.03;;;;;;;;;;5052719;28;20021;-69
2022/04/29 08:24:40;;;;;;;3.53;2.00;;;;;;;;;;5053271;28;20112;-71
2022/04/29 08:27:06;;;;;;;6.57;2.30;;;;;;;;;;5053198;28;20078;-71
2022/04/29 08:29:31;;;;;;;4.25;1.90;;;;;;;;;;5052984;28;20017;-71
2022/04/29 08:31:57;;;;;;;6.80;2.00;;;;;;;;;;5053208;28;20033;-70
2022/04/29 08:34:22;;;;;;;6.10;2.00;;;;;;;;;;5052917;28;20209;-70
2022/04/29 08:36:48;;;;;;;5.70;2.15;;;;;;;;;;5052836;28;20445;-71
2022/04/29 08:39:13;;;;;;;6.45;1.90;;;;;;;;;;5052505;28;20032;-71
2022/04/29 08:41:40;;;;;;;5.57;1.70;;;;;;;;;;5052507;28;20148;-71
2022/04/29 08:44:13;;;;;;;4.65;1.90;;;;;;;;;;5052807;28;20485;-70
2022/04/29 08:46:40;;;;;;;4.50;2.03;;;;;;;;;;5052765;28;20044;-71
2022/04/29 08:49:06;;;;;;;7.20;1.85;;;;;;;;;;5052659;28;20499;-71
2022/04/29 08:51:34;;;;;;;5.43;2.00;;;;;;;;;;5052637;28;20029;-70
2022/04/29 08:54:02;;;;;;;7.43;2.10;;;;;;;;;;5052355;28;20378;-72
2022/04/29 08:59:12;;;;;;;6.10;1.80;;;;;;;;;;5052561;28;20067;-70
2022/04/29 09:01:40;;;;;;;5.97;1.92;;;;;;;;;;5052259;28;20056;-69
2022/04/29 09:04:06;;;;;;;3.72;1.90;;;;;;;;;;5051808;28;20041;-70
2022/04/29 09:06:32;;;;;;;3.22;1.77;;;;;;;;;;5052967;28;20074;-69
2022/04/29 09:09:10;;;;;;;3.75;1.90;;;;;;;;;;5052237;28;20029;-70
2022/04/29 09:11:36;;;;;;;3.83;1.90;;;;;;;;;;5052233;28;20385;-70
2022/04/29 09:14:21;;;;;;;3.00;1.70;;;;;;;;;;5051996;28;20032;-70
2022/04/29 09:16:48;;;;;;;4.30;1.83;;;;;;;;;;5052151;28;20087;-70
2022/04/29 09:19:35;;;;;;;2.97;1.92;;;;;;;;;;5052191;28;20095;-70
2022/04/29 09:22:08;;;;;;;5.18;2.10;;;;;;;;;;5052089;28;20059;-70
2022/04/29 09:24:34;;;;;;;7.32;1.98;;;;;;;;;;5052013;28;20036;-70
2022/04/29 09:27:01;;;;;;;4.35;1.90;;;;;;;;;;5034018;28;20033;-70
2022/04/29 09:29:30;;;;;;;3.83;1.60;;;;;;;;;;5051848;28;20032;-70
2022/04/29 09:31:58;;;;;;;4.15;1.85;;;;;;;;;;5051880;28;20028;-70
2022/04/29 09:34:42;;;;;;;4.32;1.70;;;;;;;;;;5051714;28;20434;-71
2022/04/29 09:37:18;;;;;;;4.15;1.90;;;;;;;;;;5052280;28;20120;-71
2022/04/29 09:39:56;;;;;;;5.72;2.00;;;;;;;;;;5051785;28;20504;-71
2022/04/29 09:42:23;;;;;;;3.28;1.92;;;;;;;;;;5051502;28;20366;-70
2022/04/29 09:44:48;;;;;;;3.13;1.70;;;;;;;;;;5051515;28;20056;-70
2022/04/29 09:47:19;;;;;;;5.85;2.20;;;;;;;;;;5051668;28;20056;-69
2022/04/29 09:50:04;;;;;;;;;;;;;;;;;;5051930;28;20037;-69
2022/04/29 09:52:30;;;;;;;5.47;2.08;;;;;;;;;;5051498;28;19966;-71
2022/04/29 09:55:18;;;;;;;3.17;1.70;;;;;;;;;;5051473;28;20032;-69
2022/04/29 09:57:56;;;;;;;4.38;2.00;;;;;;;;;;5051754;28;20192;-71
2022/04/29 10:00:23;;;;;;;5.90;1.98;;;;;;;;;;5050986;28;20021;-71
2022/04/29 10:02:49;;;;;;;4.68;1.98;;;;;;;;;;5050975;28;20032;-69
2022/04/29 10:05:15;;;;;;;6.78;2.00;;;;;;;;;;5050955;28;20025;-70
2022/04/29 10:07:42;;;;;;;3.97;1.80;;;;;;;;;;5051161;28;20028;-70
2022/04/29 10:10:09;;;;;;;4.35;1.88;;;;;;;;;;5051015;28;20025;-70
2022/04/29 10:12:35;;;;;;;6.45;1.90;;;;;;;;;;5051106;28;20025;-70
2022/04/29 10:15:05;;;;;;;3.17;1.98;;;;;;;;;;5051160;28;20094;-71
2022/04/29 10:23:05;;;;;;;6.20;2.10;;;;;;;;;;5050710;28;20044;-70
2022/04/29 10:25:31;;;;;;;5.88;1.80;;;;;;;;;;5050790;28;20515;-70
2022/04/29 10:27:57;;;;;;;3.50;1.92;;;;;;;;;;5051054;28;20024;-70
2022/04/29 10:30:34;;;;;;;6.22;2.22;;;;;;;;;;5050831;28;20036;-70
2022/04/29 10:33:00;;;;;;;4.15;2.00;;;;;;;;;;5050607;28;20024;-69
2022/04/29 10:35:49;;;;;;;4.50;1.90;;;;;;;;;;5050345;28;20025;-69
2022/04/29 10:38:46;;;;;;;5.30;1.90;;;;;;;;;;5051091;28;20036;-69
2022/04/29 10:41:25;;;;;;;7.88;2.13;;;;;;;;;;5042095;28;20048;-71
2022/04/29 10:43:50;;;;;;;4.95;2.00;;;;;;;;;;5050370;28;20021;-71
2022/04/29 10:46:39;;;;;;;5.65;2.05;;;;;;;;;;5050590;28;20417;-71
2022/04/29 10:49:26;;;;;;;3.70;1.90;;;;;;;;;;5050345;28;20025;-70
2022/04/29 10:52:02;;;;;;;7.13;2.08;;;;;;;;;;5050269;28;20110;-69
2022/04/29 10:54:34;;;;;;;3.33;2.05;;;;;;;;;;5050056;28;20031;-70
2022/04/29 10:57:02;;;;;;;5.55;1.98;;;;;;;;;;5050313;28;20025;-69
2022/04/29 10:59:47;;;;;;;3.97;1.90;;;;;;;;;;5049884;28;20424;-70
2022/04/29 11:02:32;;;;;;;4.53;1.98;;;;;;;;;;5049981;28;20025;-69
2022/04/29 11:05:00;;;;;;;5.60;1.83;;;;;;;;;;5049896;28;20116;-69
2022/04/29 11:07:43;;;;;;;5.28;2.05;;;;;;;;;;5050458;28;20020;-69
2022/04/29 11:10:14;;;;;;;7.22;2.40;;;;;;;;;;5049923;28;20033;-70
2022/04/29 11:12:42;;;;;;;6.00;1.85;;;;;;;;;;5049607;28;20021;-71
2022/04/29 11:15:23;;;;;;;4.03;2.20;;;;;;;;;;5049589;28;20029;-70
2022/04/29 11:17:49;;;;;;;5.55;2.10;;;;;;;;;;5050212;28;20174;-71
2022/04/29 11:20:25;;;;;;;6.78;2.92;;;;;;;;;;5050082;28;20028;-70
2022/04/29 11:25:57;;;;;;;5.88;2.25;;;;;;;;;;5050076;28;20043;-70
2022/04/29 11:28:24;;;;;;;8.90;2.53;;;;;;;;;;5050112;28;20055;-69
2022/04/29 11:30:58;;;;;;;7.10;2.10;;;;;;;;;;5049563;28;20067;-70
2022/04/29 11:33:24;;;;;;;4.22;2.25;;;;;;;;;;5049675;28;20028;-70
2022/04/29 11:35:52;;;;;;;4.57;2.00;;;;;;;;;;5049458;28;20523;-70
2022/04/29 11:38:17;;;;;;;9.73;2.22;;;;;;;;;;5049881;28;20033;-71
2022/04/29 11:40:43;;;;;;;4.72;2.15;;;;;;;;;;5049400;28;20072;-70
2022/04/29 11:43:10;;;;;;;20.35;3.80;;;;;;;;;;5049093;28;20420;-70
2022/04/29 11:45:37;;;;;;;4.93;2.00;;;;;;;;;;5048443;28;20040;-71
2022/04/29 11:48:04;;;;;;;12.77;3.20;;;;;;;;;;5049836;28;20029;-70
2022/04/29 11:50:31;;;;;;;5.90;2.75;;;;;;;;;;5048942;28;20025;-70
2022/04/29 11:53:09;;;;;;;7.22;2.60;;;;;;;;;;5049495;28;20484;-70
2022/04/29 11:55:35;;;;;;;13.68;3.70;;;;;;;;;;5049751;28;20029;-70
2022/04/29 11:58:01;;;;;;;12.88;3.00;;;;;;;;;;5045119;28;20476;-71
2022/04/29 12:00:28;;;;;;;8.40;2.47;;;;;;;;;;5048569;28;20104;-71
2022/04/29 12:02:55;;;;;;;14.85;3.70;;;;;;;;;;5048780;28;20235;-71
2022/04/29 12:05:26;;;;;;;7.03;2.65;;;;;;;;;;5048069;28;20465;-73
2022/04/29 12:07:51;;;;;;;135.15;18.50;;;;;;;;;;5048593;28;20493;-73
2022/04/29 12:10:18;;;;;;;10.68;2.88;;;;;;;;;;5049582;28;20082;-72
2022/04/29 12:12:46;;;;;;;15.30;3.92;;;;;;;;;;5049223;28;20033;-73
2022/04/29 12:15:12;;;;;;;6.35;2.22;;;;;;;;;;5048576;28;20025;-72
2022/04/29 12:17:39;;;;;;;5.22;2.20;;;;;;;;;;5049435;28;20055;-71
2022/04/29 12:20:07;;;;;;;23.10;5.07;;;;;;;;;;5049112;28;20032;-71
2022/04/29 12:22:38;;;;;;;6.07;2.17;;;;;;;;;;5049408;28;20130;-71
2022/04/29 12:25:45;;;;;;;6.07;2.35;;;;;;;;;;5048743;28;20029;-71
2022/04/29 12:28:28;;;;;;;4.82;2.30;;;;;;;;;;5008759;28;20068;-70
2022/04/29 12:36:57;;;;;;;4.82;2.40;;;;;;;;;;5049069;28;20542;-71
2022/04/29 12:39:40;;;;;;;4.88;2.20;;;;;;;;;;5049628;28;20025;-71
2022/04/29 12:42:10;;;;;;;6.32;2.30;;;;;;;;;;5052284;28;20045;-71
2022/04/29 12:47:43;;;;;;;15.15;3.30;;;;;;;;;;5052467;28;20029;-71
2022/04/29 12:50:40;;;;;;;5.03;2.30;;;;;;;;;;5050868;28;20086;-70
2022/04/29 12:53:13;;;;;;;6.22;2.50;;;;;;;;;;5050717;28;20021;-70
2022/04/29 12:55:51;;;;;;;7.88;2.63;;;;;;;;;;5050553;28;20112;-70
2022/04/29 12:58:18;;;;;;;6.70;2.60;;;;;;;;;;5050874;28;20362;-70
2022/04/29 13:00:48;;;;;;;16.58;3.35;;;;;;;;;;5051740;28;20032;-70
2022/04/29 13:03:26;;;;;;;10.52;2.50;;;;;;;;;;5052795;28;20028;-70
2022/04/29 13:05:52;;;;;;;7.53;2.40;;;;;;;;;;5052862;28;20037;-70
2022/04/29 13:08:17;;;;;;;6.40;2.92;;;;;;;;;;5052550;28;20098;-70
2022/04/29 13:10:51;;;;;;;3.47;2.30;;;;;;;;;;5052130;28;20473;-71
2022/04/29 13:13:18;;;;;;;19.80;3.67;;;;;;;;;;5052453;28;20024;-70
2022/04/29 13:15:44;;;;;;;8.07;2.78;;;;;;;;;;5051704;28;20111;-71
2022/04/29 13:18:11;;;;;;;6.15;2.60;;;;;;;;;;5052323;28;20400;-70
2022/04/29 13:20:38;;;;;;;5.53;2.53;;;;;;;;;;5052089;28;20090;-71
2022/04/29 13:23:05;;;;;;;6.95;2.45;;;;;;;;;;5052218;28;20056;-71
2022/04/29 13:25:34;;;;;;;4.88;2.22;;;;;;;;;;5053914;28;20037;-70
2022/04/29 13:27:59;;;;;;;6.35;2.78;;;;;;;;;;5052034;28;20060;-70
2022/04/29 13:30:24;;;;;;;6.22;2.58;;;;;;;;;;5051650;28;20024;-70
2022/04/29 13:32:51;;;;;;;4.72;2.50;;;;;;;;;;5051738;28;20083;-71
2022/04/29 13:35:17;;;;;;;5.60;2.72;;;;;;;;;;5051683;28;20021;-70
2022/04/29 13:37:42;;;;;;;5.28;2.40;;;;;;;;;;5051640;28;20112;-71
2022/04/29 13:40:09;;;;;;;6.38;2.30;;;;;;;;;;5052058;28;20032;-70
2022/04/29 13:42:36;;;;;;;6.15;2.60;;;;;;;;;;5051461;28;20041;-70
2022/04/29 13:45:05;;;;;;;7.18;2.70;;;;;;;;;;5051275;28;20078;-71
2022/04/29 13:47:36;;;;;;;4.28;2.42;;;;;;;;;;5051265;28;20114;-74
2022/04/29 13:50:02;;;;;;;5.22;2.60;;;;;;;;;;5052898;28;20051;-75
2022/04/29 13:55:13;;;;;;;6.55;2.50;;;;;;;;;;5051816;28;20028;-74
2022/04/29 13:57:39;;;;;;;6.90;2.45;;;;;;;;;;5051222;28;20032;-72
2022/04/29 14:00:06;;;;;;;6.78;2.88;;;;;;;;;;5051275;28;20093;-73
2022/04/29 14:02:32;;;;;;;4.13;2.35;;;;;;;;;;5051217;28;20025;-72
2022/04/29 14:04:58;;;;;;;4.38;2.35;;;;;;;;;;5051015;28;20493;-70
2022/04/29 14:07:24;;;;;;;4.68;2.40;;;;;;;;;;5051009;28;20033;-72
2022/04/29 14:09:50;;;;;;;4.80;2.55;;;;;;;;;;5033175;28;20477;-71
2022/04/29 14:12:16;;;;;;;4.82;2.40;;;;;;;;;;5050826;28;20482;-71
2022/04/29 14:14:43;;;;;;;4.25;2.17;;;;;;;;;;5050970;28;20036;-72
2022/04/29 14:17:09;;;;;;;7.95;3.17;;;;;;;;;;5050816;28;20162;-71
2022/04/29 14:19:35;;;;;;;4.38;2.38;;;;;;;;;;5051218;28;20033;-71
2022/04/29 14:22:02;;;;;;;6.18;2.45;;;;;;;;;;5050732;28;20167;-71
2022/04/29 14:24:28;;;;;;;4.25;2.15;;;;;;;;;;5050915;28;20029;-70
2022/04/29 14:26:54;;;;;;;5.35;2.40;;;;;;;;;;5051031;28;20461;-70
2022/04/29 14:29:19;;;;;;;4.40;1.90;;;;;;;;;;5051075;28;20032;-66
2022/04/29 14:31:45;;;;;;;6.80;2.38;;;;;;;;;;5050598;28;20032;-67
2022/04/29 14:34:11;;;;;;;5.78;2.28;;;;;;;;;;5050628;28;20094;-69
2022/04/29 14:36:36;;;;;;;5.47;2.40;;;;;;;;;;5050475;28;20171;-72
2022/04/29 14:39:03;;;;;;;6.78;2.47;;;;;;;;;;5050758;28;20112;-70
2022/04/29 14:41:29;;;;;;;5.75;2.78;;;;;;;;;;5042533;28;20380;-66
2022/04/29 14:43:57;;;;;;;5.70;2.60;;;;;;;;;;5044177;28;20319;-67
2022/04/29 14:46:23;;;;;;;6.93;2.33;;;;;;;;;;5033844;28;20112;-68
2022/04/29 14:48:49;;;;;;;7.35;2.40;;;;;;;;;;5031935;28;20072;-68
2022/04/29 14:51:16;;;;;;;5.05;2.40;;;;;;;;;;5051243;28;20051;-71
2022/04/29 14:53:41;;;;;;;4.13;2.10;;;;;;;;;;5050330;28;20021;-73
2022/04/29 14:56:07;;;;;;;4.65;2.30;;;;;;;;;;5050009;28;20036;-69
2022/04/29 14:58:33;;;;;;;6.40;2.53;;;;;;;;;;5038603;28;20029;-67
2022/04/29 15:00:59;;;;;;;4.65;2.30;;;;;;;;;;5031673;28;20036;-75
2022/04/29 15:03:25;;;;;;;5.22;2.55;;;;;;;;;;5029299;28;20036;-75
2022/04/29 15:05:51;;;;;;;6.32;2.90;;;;;;;;;;5030187;28;20033;-72
2022/04/29 15:08:16;;;;;;;5.38;2.28;;;;;;;;;;5030580;28;20071;-75
2022/04/29 15:16:11;;;;;;;5.20;2.20;;;;;;;;;;5045379;28;20087;-70
2022/04/29 15:18:38;;;;;;;3.58;1.95;;;;;;;;;;5049826;28;20025;-75
2022/04/29 15:21:04;;;;;;;7.38;2.45;;;;;;;;;;5049789;28;20029;-77
2022/04/29 15:23:29;;;;;;;3.65;2.17;;;;;;;;;;5050353;28;20039;-76
2022/04/29 15:25:54;;;;;;;4.47;2.00;;;;;;;;;;5049797;28;20037;-74
2022/04/29 15:28:20;;;;;;;3.67;2.10;;;;;;;;;;5049855;28;20021;-73
2022/04/29 15:30:47;;;;;;;4.35;2.20;;;;;;;;;;5049815;28;20036;-66